sensor_id;sensor_type;location;lat;lon;timestamp;temperature;humidity
4566;DHT22;2295;51.050;14.608;2023-09-12T00:02:27;15.20;99.90
4566;DHT22;2295;51.050;14.608;2023-09-12T00:04:56;15.20;99.90
4566;DHT22;2295;51.050;14.608;2023-09-12T00:07:24;15.20;99.90
4566;DHT22;2295;51.050;14.608;2023-09-12T00:09:52;15.20;99.90
4566;DHT22;2295;51.050;14.608;2023-09-12T00:12:23;15.20;99.90
4566;DHT22;2295;51.050;14.608;2023-09-12T00:14:52;15.10;99.90
4566;DHT22;2295;51.050;14.608;2023-09-12T00:17:21;15.10;99.90
4566;DHT22;2295;51.050;14.608;2023-09-12T00:19:50;15.10;99.90
4566;DHT22;2295;51.050;14.608;2023-09-12T00:22:18;15.10;99.90
4566;DHT22;2295;51.050;14.608;2023-09-12T00:24:46;15.00;99.90
4566;DHT22;2295;51.050;14.608;2023-09-12T00:27:15;14.90;99.90
4566;DHT22;2295;51.050;14.608;2023-09-12T00:29:43;15.00;99.90
4566;DHT22;2295;51.050;14.608;2023-09-12T00:32:11;15.00;99.90
4566;DHT22;2295;51.050;14.608;2023-09-12T00:34:41;15.00;99.90
4566;DHT22;2295;51.050;14.608;2023-09-12T00:37:09;15.00;99.90
4566;DHT22;2295;51.050;14.608;2023-09-12T00:39:38;14.90;99.90
4566;DHT22;2295;51.050;14.608;2023-09-12T00:42:07;14.90;99.90
4566;DHT22;2295;51.050;14.608;2023-09-12T00:44:35;14.90;99.90
4566;DHT22;2295;51.050;14.608;2023-09-12T00:47:04;14.90;99.90
4566;DHT22;2295;51.050;14.608;2023-09-12T00:49:33;14.80;99.90
4566;DHT22;2295;51.050;14.608;2023-09-12T00:52:04;14.80;99.90
4566;DHT22;2295;51.050;14.608;2023-09-12T00:54:32;14.80;99.90
4566;DHT22;2295;51.050;14.608;2023-09-12T00:57:03;14.70;99.90
4566;DHT22;2295;51.050;14.608;2023-09-12T00:59:32;14.70;99.90
4566;DHT22;2295;51.050;14.608;2023-09-12T01:02:01;14.70;99.90
4566;DHT22;2295;51.050;14.608;2023-09-12T01:04:30;14.70;99.90
4566;DHT22;2295;51.050;14.608;2023-09-12T01:07:04;14.70;99.90
4566;DHT22;2295;51.050;14.608;2023-09-12T01:09:33;14.80;99.90
4566;DHT22;2295;51.050;14.608;2023-09-12T01:12:02;14.70;99.90
4566;DHT22;2295;51.050;14.608;2023-09-12T01:14:30;14.80;99.90
4566;DHT22;2295;51.050;14.608;2023-09-12T01:17:00;14.80;99.90
4566;DHT22;2295;51.050;14.608;2023-09-12T01:19:29;14.80;99.90
4566;DHT22;2295;51.050;14.608;2023-09-12T01:22:17;14.90;99.90
4566;DHT22;2295;51.050;14.608;2023-09-12T01:25:08;15.00;99.90
4566;DHT22;2295;51.050;14.608;2023-09-12T01:27:46;15.10;99.90
4566;DHT22;2295;51.050;14.608;2023-09-12T01:30:17;15.00;99.90
4566;DHT22;2295;51.050;14.608;2023-09-12T01:32:47;15.00;99.90
4566;DHT22;2295;51.050;14.608;2023-09-12T01:35:15;15.00;99.90
4566;DHT22;2295;51.050;14.608;2023-09-12T01:37:44;15.00;99.90
4566;DHT22;2295;51.050;14.608;2023-09-12T01:40:12;15.00;99.90
4566;DHT22;2295;51.050;14.608;2023-09-12T01:42:44;15.00;99.90
4566;DHT22;2295;51.050;14.608;2023-09-12T01:45:15;15.00;99.90
4566;DHT22;2295;51.050;14.608;2023-09-12T01:47:50;14.90;99.90
4566;DHT22;2295;51.050;14.608;2023-09-12T01:50:19;14.90;99.90
4566;DHT22;2295;51.050;14.608;2023-09-12T01:52:49;14.80;99.90
4566;DHT22;2295;51.050;14.608;2023-09-12T01:55:18;14.70;99.90
4566;DHT22;2295;51.050;14.608;2023-09-12T01:57:48;14.70;99.90
4566;DHT22;2295;51.050;14.608;2023-09-12T02:00:18;14.60;99.90
4566;DHT22;2295;51.050;14.608;2023-09-12T02:02:47;14.60;99.90
4566;DHT22;2295;51.050;14.608;2023-09-12T02:05:17;14.50;99.90
4566;DHT22;2295;51.050;14.608;2023-09-12T02:07:47;14.50;99.90
4566;DHT22;2295;51.050;14.608;2023-09-12T02:10:15;14.40;99.90
4566;DHT22;2295;51.050;14.608;2023-09-12T02:12:44;14.30;99.90
4566;DHT22;2295;51.050;14.608;2023-09-12T02:15:14;14.30;99.90
4566;DHT22;2295;51.050;14.608;2023-09-12T02:17:42;14.20;99.90
4566;DHT22;2295;51.050;14.608;2023-09-12T02:20:11;14.10;99.90
4566;DHT22;2295;51.050;14.608;2023-09-12T02:22:39;14.10;99.90
4566;DHT22;2295;51.050;14.608;2023-09-12T02:25:08;14.10;99.90
4566;DHT22;2295;51.050;14.608;2023-09-12T02:27:36;14.10;99.90
4566;DHT22;2295;51.050;14.608;2023-09-12T02:30:06;14.10;99.90
4566;DHT22;2295;51.050;14.608;2023-09-12T02:32:36;14.10;99.90
4566;DHT22;2295;51.050;14.608;2023-09-12T02:35:05;14.00;99.90
4566;DHT22;2295;51.050;14.608;2023-09-12T02:37:33;14.00;99.90
4566;DHT22;2295;51.050;14.608;2023-09-12T02:40:02;14.00;99.90
4566;DHT22;2295;51.050;14.608;2023-09-12T02:42:32;13.90;99.90
4566;DHT22;2295;51.050;14.608;2023-09-12T02:45:00;13.90;99.90
4566;DHT22;2295;51.050;14.608;2023-09-12T02:47:29;14.00;99.90
4566;DHT22;2295;51.050;14.608;2023-09-12T02:49:59;14.00;99.90
4566;DHT22;2295;51.050;14.608;2023-09-12T02:52:27;14.00;99.90
4566;DHT22;2295;51.050;14.608;2023-09-12T02:54:56;13.90;99.90
4566;DHT22;2295;51.050;14.608;2023-09-12T02:57:25;13.90;99.90
4566;DHT22;2295;51.050;14.608;2023-09-12T02:59:53;13.90;99.90
4566;DHT22;2295;51.050;14.608;2023-09-12T03:02:21;13.90;99.90
4566;DHT22;2295;51.050;14.608;2023-09-12T03:04:50;13.90;99.90
4566;DHT22;2295;51.050;14.608;2023-09-12T03:07:20;13.90;99.90
4566;DHT22;2295;51.050;14.608;2023-09-12T03:09:48;13.90;99.90
4566;DHT22;2295;51.050;14.608;2023-09-12T03:12:17;13.90;99.90
4566;DHT22;2295;51.050;14.608;2023-09-12T03:14:46;13.90;99.90
4566;DHT22;2295;51.050;14.608;2023-09-12T03:17:14;13.80;99.90
4566;DHT22;2295;51.050;14.608;2023-09-12T03:19:43;13.80;99.90
4566;DHT22;2295;51.050;14.608;2023-09-12T03:22:11;13.80;99.90
4566;DHT22;2295;51.050;14.608;2023-09-12T03:24:41;13.90;99.90
4566;DHT22;2295;51.050;14.608;2023-09-12T03:27:10;13.80;99.90
4566;DHT22;2295;51.050;14.608;2023-09-12T03:29:38;13.80;99.90
4566;DHT22;2295;51.050;14.608;2023-09-12T03:32:06;13.90;99.90
4566;DHT22;2295;51.050;14.608;2023-09-12T03:34:35;13.80;99.90
4566;DHT22;2295;51.050;14.608;2023-09-12T03:37:04;13.80;99.90
4566;DHT22;2295;51.050;14.608;2023-09-12T03:39:32;13.80;99.90
4566;DHT22;2295;51.050;14.608;2023-09-12T03:42:03;13.80;99.90
4566;DHT22;2295;51.050;14.608;2023-09-12T03:44:33;13.90;99.90
4566;DHT22;2295;51.050;14.608;2023-09-12T03:47:01;13.90;99.90
4566;DHT22;2295;51.050;14.608;2023-09-12T03:49:29;13.90;99.90
4566;DHT22;2295;51.050;14.608;2023-09-12T03:51:58;14.00;99.90
4566;DHT22;2295;51.050;14.608;2023-09-12T03:54:26;14.00;99.90
4566;DHT22;2295;51.050;14.608;2023-09-12T03:56:55;14.00;99.90
4566;DHT22;2295;51.050;14.608;2023-09-12T03:59:25;14.00;99.90
4566;DHT22;2295;51.050;14.608;2023-09-12T04:01:53;13.90;99.90
4566;DHT22;2295;51.050;14.608;2023-09-12T04:04:22;13.80;99.90
4566;DHT22;2295;51.050;14.608;2023-09-12T04:06:51;13.80;99.90
4566;DHT22;2295;51.050;14.608;2023-09-12T04:09:22;13.80;99.90
4566;DHT22;2295;51.050;14.608;2023-09-12T04:11:50;13.70;99.90
4566;DHT22;2295;51.050;14.608;2023-09-12T04:14:21;13.70;99.90
4566;DHT22;2295;51.050;14.608;2023-09-12T04:16:51;13.70;99.90
4566;DHT22;2295;51.050;14.608;2023-09-12T04:19:19;13.80;99.90
4566;DHT22;2295;51.050;14.608;2023-09-12T04:21:48;13.90;99.90
4566;DHT22;2295;51.050;14.608;2023-09-12T04:24:16;14.00;99.90
4566;DHT22;2295;51.050;14.608;2023-09-12T04:26:45;14.00;99.90
4566;DHT22;2295;51.050;14.608;2023-09-12T04:29:13;14.00;99.90
4566;DHT22;2295;51.050;14.608;2023-09-12T04:31:41;13.90;99.90
4566;DHT22;2295;51.050;14.608;2023-09-12T04:34:11;13.90;99.90
4566;DHT22;2295;51.050;14.608;2023-09-12T04:36:40;13.90;99.90
4566;DHT22;2295;51.050;14.608;2023-09-12T04:39:08;13.90;99.90
4566;DHT22;2295;51.050;14.608;2023-09-12T04:41:37;13.90;99.90
4566;DHT22;2295;51.050;14.608;2023-09-12T04:44:05;13.80;99.90
4566;DHT22;2295;51.050;14.608;2023-09-12T04:46:34;13.80;99.90
4566;DHT22;2295;51.050;14.608;2023-09-12T04:49:03;13.80;99.90
4566;DHT22;2295;51.050;14.608;2023-09-12T04:51:33;13.70;99.90
4566;DHT22;2295;51.050;14.608;2023-09-12T04:54:01;13.70;99.90
4566;DHT22;2295;51.050;14.608;2023-09-12T04:56:30;13.70;99.90
4566;DHT22;2295;51.050;14.608;2023-09-12T04:58:58;13.70;99.90
4566;DHT22;2295;51.050;14.608;2023-09-12T05:01:27;13.70;99.90
4566;DHT22;2295;51.050;14.608;2023-09-12T05:03:55;13.70;99.90
4566;DHT22;2295;51.050;14.608;2023-09-12T05:06:24;13.70;99.90
4566;DHT22;2295;51.050;14.608;2023-09-12T05:08:54;13.80;99.90
4566;DHT22;2295;51.050;14.608;2023-09-12T05:11:22;14.00;99.90
4566;DHT22;2295;51.050;14.608;2023-09-12T05:13:51;14.20;99.90
4566;DHT22;2295;51.050;14.608;2023-09-12T05:16:19;14.30;99.90
4566;DHT22;2295;51.050;14.608;2023-09-12T05:18:48;14.40;99.90
4566;DHT22;2295;51.050;14.608;2023-09-12T05:21:18;14.50;99.90
4566;DHT22;2295;51.050;14.608;2023-09-12T05:23:46;14.60;99.90
4566;DHT22;2295;51.050;14.608;2023-09-12T05:26:16;14.70;99.90
4566;DHT22;2295;51.050;14.608;2023-09-12T05:28:45;14.80;99.90
4566;DHT22;2295;51.050;14.608;2023-09-12T05:31:13;14.80;99.90
4566;DHT22;2295;51.050;14.608;2023-09-12T05:33:42;14.90;99.90
4566;DHT22;2295;51.050;14.608;2023-09-12T05:36:10;15.00;99.90
4566;DHT22;2295;51.050;14.608;2023-09-12T05:38:39;15.10;99.90
4566;DHT22;2295;51.050;14.608;2023-09-12T05:41:08;15.20;99.90
4566;DHT22;2295;51.050;14.608;2023-09-12T05:43:38;15.30;99.90
4566;DHT22;2295;51.050;14.608;2023-09-12T05:46:06;15.40;99.90
4566;DHT22;2295;51.050;14.608;2023-09-12T05:48:34;15.50;99.90
4566;DHT22;2295;51.050;14.608;2023-09-12T05:51:03;15.70;99.90
4566;DHT22;2295;51.050;14.608;2023-09-12T05:53:32;15.90;99.90
4566;DHT22;2295;51.050;14.608;2023-09-12T05:56:00;16.10;99.90
4566;DHT22;2295;51.050;14.608;2023-09-12T05:58:29;16.20;99.90
4566;DHT22;2295;51.050;14.608;2023-09-12T06:00:59;16.20;99.90
4566;DHT22;2295;51.050;14.608;2023-09-12T06:03:28;16.30;99.90
4566;DHT22;2295;51.050;14.608;2023-09-12T06:05:57;16.40;99.90
4566;DHT22;2295;51.050;14.608;2023-09-12T06:08:25;16.50;99.90
4566;DHT22;2295;51.050;14.608;2023-09-12T06:10:54;16.80;99.90
4566;DHT22;2295;51.050;14.608;2023-09-12T06:13:22;17.50;99.90
4566;DHT22;2295;51.050;14.608;2023-09-12T06:15:51;18.40;99.90
4566;DHT22;2295;51.050;14.608;2023-09-12T06:18:21;18.90;99.90
4566;DHT22;2295;51.050;14.608;2023-09-12T06:20:51;19.50;99.90
4566;DHT22;2295;51.050;14.608;2023-09-12T06:23:20;20.10;99.90
4566;DHT22;2295;51.050;14.608;2023-09-12T06:25:49;20.60;99.90
4566;DHT22;2295;51.050;14.608;2023-09-12T06:28:25;21.10;99.90
4566;DHT22;2295;51.050;14.608;2023-09-12T06:30:53;21.50;99.90
4566;DHT22;2295;51.050;14.608;2023-09-12T06:33:24;21.80;99.90
4566;DHT22;2295;51.050;14.608;2023-09-12T06:35:54;21.90;99.90
4566;DHT22;2295;51.050;14.608;2023-09-12T06:38:23;22.10;99.90
4566;DHT22;2295;51.050;14.608;2023-09-12T06:40:51;22.20;99.90
4566;DHT22;2295;51.050;14.608;2023-09-12T06:43:20;22.30;99.90
4566;DHT22;2295;51.050;14.608;2023-09-12T06:45:48;22.40;99.90
4566;DHT22;2295;51.050;14.608;2023-09-12T06:48:17;22.50;99.90
4566;DHT22;2295;51.050;14.608;2023-09-12T06:50:47;22.80;99.90
4566;DHT22;2295;51.050;14.608;2023-09-12T06:53:20;23.20;99.90
4566;DHT22;2295;51.050;14.608;2023-09-12T06:55:48;23.60;99.90
4566;DHT22;2295;51.050;14.608;2023-09-12T06:58:16;24.20;99.90
4566;DHT22;2295;51.050;14.608;2023-09-12T07:00:45;25.00;99.90
4566;DHT22;2295;51.050;14.608;2023-09-12T07:03:13;25.50;99.90
4566;DHT22;2295;51.050;14.608;2023-09-12T07:05:43;26.10;99.90
4566;DHT22;2295;51.050;14.608;2023-09-12T07:08:13;26.50;99.90
4566;DHT22;2295;51.050;14.608;2023-09-12T07:10:44;26.60;99.90
4566;DHT22;2295;51.050;14.608;2023-09-12T07:13:13;27.00;99.90
4566;DHT22;2295;51.050;14.608;2023-09-12T07:15:41;27.50;99.90
4566;DHT22;2295;51.050;14.608;2023-09-12T07:18:10;27.80;99.90
4566;DHT22;2295;51.050;14.608;2023-09-12T07:20:38;27.80;98.80
4566;DHT22;2295;51.050;14.608;2023-09-12T07:23:07;27.50;97.70
4566;DHT22;2295;51.050;14.608;2023-09-12T07:25:41;27.30;99.50
4566;DHT22;2295;51.050;14.608;2023-09-12T07:28:09;27.60;99.90
4566;DHT22;2295;51.050;14.608;2023-09-12T07:30:37;27.90;99.90
4566;DHT22;2295;51.050;14.608;2023-09-12T07:33:06;28.50;96.70
4566;DHT22;2295;51.050;14.608;2023-09-12T07:35:34;28.90;96.20
4566;DHT22;2295;51.050;14.608;2023-09-12T07:38:03;29.30;93.80
4566;DHT22;2295;51.050;14.608;2023-09-12T07:40:31;29.30;94.20
4566;DHT22;2295;51.050;14.608;2023-09-12T07:43:01;29.20;92.90
4566;DHT22;2295;51.050;14.608;2023-09-12T07:45:29;28.80;92.10
4566;DHT22;2295;51.050;14.608;2023-09-12T07:47:58;28.30;93.10
4566;DHT22;2295;51.050;14.608;2023-09-12T07:50:26;27.90;95.60
4566;DHT22;2295;51.050;14.608;2023-09-12T07:52:56;27.60;96.30
4566;DHT22;2295;51.050;14.608;2023-09-12T07:55:25;27.40;97.50
4566;DHT22;2295;51.050;14.608;2023-09-12T07:57:57;27.60;98.80
4566;DHT22;2295;51.050;14.608;2023-09-12T08:00:26;28.20;95.20
4566;DHT22;2295;51.050;14.608;2023-09-12T08:02:55;28.20;96.60
4566;DHT22;2295;51.050;14.608;2023-09-12T08:05:23;28.00;96.40
4566;DHT22;2295;51.050;14.608;2023-09-12T08:07:51;28.20;95.10
4566;DHT22;2295;51.050;14.608;2023-09-12T08:10:20;28.10;95.60
4566;DHT22;2295;51.050;14.608;2023-09-12T08:12:48;28.20;95.00
4566;DHT22;2295;51.050;14.608;2023-09-12T08:15:17;28.80;94.70
4566;DHT22;2295;51.050;14.608;2023-09-12T08:17:47;29.20;94.90
4566;DHT22;2295;51.050;14.608;2023-09-12T08:20:19;29.70;94.40
4566;DHT22;2295;51.050;14.608;2023-09-12T08:22:48;29.80;92.60
4566;DHT22;2295;51.050;14.608;2023-09-12T08:25:16;30.00;91.90
4566;DHT22;2295;51.050;14.608;2023-09-12T08:27:45;30.00;92.20
4566;DHT22;2295;51.050;14.608;2023-09-12T08:30:15;30.30;90.70
4566;DHT22;2295;51.050;14.608;2023-09-12T08:32:44;29.90;91.30
4566;DHT22;2295;51.050;14.608;2023-09-12T08:35:14;29.60;91.40
4566;DHT22;2295;51.050;14.608;2023-09-12T08:37:42;29.20;91.90
4566;DHT22;2295;51.050;14.608;2023-09-12T08:40:11;29.40;91.90
4566;DHT22;2295;51.050;14.608;2023-09-12T08:42:41;30.10;92.00
4566;DHT22;2295;51.050;14.608;2023-09-12T08:45:12;30.50;88.10
4566;DHT22;2295;51.050;14.608;2023-09-12T08:47:44;31.00;87.30
4566;DHT22;2295;51.050;14.608;2023-09-12T08:50:15;31.30;89.20
4566;DHT22;2295;51.050;14.608;2023-09-12T08:52:45;31.30;85.50
4566;DHT22;2295;51.050;14.608;2023-09-12T08:55:32;31.70;85.50
4566;DHT22;2295;51.050;14.608;2023-09-12T08:58:04;31.80;86.90
4566;DHT22;2295;51.050;14.608;2023-09-12T09:00:34;32.00;85.60
4566;DHT22;2295;51.050;14.608;2023-09-12T09:03:03;32.70;76.80
4566;DHT22;2295;51.050;14.608;2023-09-12T09:05:35;33.00;76.40
4566;DHT22;2295;51.050;14.608;2023-09-12T09:08:04;33.20;72.90
4566;DHT22;2295;51.050;14.608;2023-09-12T09:10:33;33.20;71.80
4566;DHT22;2295;51.050;14.608;2023-09-12T09:13:16;33.50;69.10
4566;DHT22;2295;51.050;14.608;2023-09-12T09:15:44;33.70;64.00
4566;DHT22;2295;51.050;14.608;2023-09-12T09:18:13;33.50;67.10
4566;DHT22;2295;51.050;14.608;2023-09-12T09:20:43;33.70;64.30
4566;DHT22;2295;51.050;14.608;2023-09-12T09:23:16;33.40;64.10
4566;DHT22;2295;51.050;14.608;2023-09-12T09:25:51;33.80;64.00
4566;DHT22;2295;51.050;14.608;2023-09-12T09:28:21;33.80;66.60
4566;DHT22;2295;51.050;14.608;2023-09-12T09:30:51;34.00;63.40
4566;DHT22;2295;51.050;14.608;2023-09-12T09:33:22;33.80;62.70
4566;DHT22;2295;51.050;14.608;2023-09-12T09:36:03;33.80;68.60
4566;DHT22;2295;51.050;14.608;2023-09-12T09:38:31;34.30;65.00
4566;DHT22;2295;51.050;14.608;2023-09-12T09:41:04;34.50;66.10
4566;DHT22;2295;51.050;14.608;2023-09-12T09:43:32;34.50;66.40
4566;DHT22;2295;51.050;14.608;2023-09-12T09:46:01;34.80;64.70
4566;DHT22;2295;51.050;14.608;2023-09-12T09:48:31;34.80;63.40
4566;DHT22;2295;51.050;14.608;2023-09-12T09:51:04;35.10;63.40
4566;DHT22;2295;51.050;14.608;2023-09-12T09:53:32;35.10;57.30
4566;DHT22;2295;51.050;14.608;2023-09-12T09:56:08;34.80;59.70
4566;DHT22;2295;51.050;14.608;2023-09-12T09:58:45;34.50;58.00
4566;DHT22;2295;51.050;14.608;2023-09-12T10:01:18;33.90;61.00
4566;DHT22;2295;51.050;14.608;2023-09-12T10:03:49;33.50;61.70
4566;DHT22;2295;51.050;14.608;2023-09-12T10:06:19;33.50;64.80
4566;DHT22;2295;51.050;14.608;2023-09-12T10:08:51;33.40;66.20
4566;DHT22;2295;51.050;14.608;2023-09-12T10:11:22;32.80;60.00
4566;DHT22;2295;51.050;14.608;2023-09-12T10:13:54;32.60;62.20
4566;DHT22;2295;51.050;14.608;2023-09-12T10:16:24;33.00;68.20
4566;DHT22;2295;51.050;14.608;2023-09-12T10:18:58;33.20;63.80
4566;DHT22;2295;51.050;14.608;2023-09-12T10:21:30;33.10;65.50
4566;DHT22;2295;51.050;14.608;2023-09-12T10:24:00;33.50;65.40
4566;DHT22;2295;51.050;14.608;2023-09-12T10:26:31;34.00;62.00
4566;DHT22;2295;51.050;14.608;2023-09-12T10:29:00;34.40;60.60
4566;DHT22;2295;51.050;14.608;2023-09-12T10:31:31;34.70;62.40
4566;DHT22;2295;51.050;14.608;2023-09-12T10:34:01;34.80;58.20
4566;DHT22;2295;51.050;14.608;2023-09-12T10:36:32;34.60;56.50
4566;DHT22;2295;51.050;14.608;2023-09-12T10:39:04;34.50;56.20
4566;DHT22;2295;51.050;14.608;2023-09-12T10:41:33;34.20;60.50
4566;DHT22;2295;51.050;14.608;2023-09-12T10:44:09;33.80;57.20
4566;DHT22;2295;51.050;14.608;2023-09-12T10:46:38;33.80;65.10
4566;DHT22;2295;51.050;14.608;2023-09-12T10:49:07;33.50;59.70
4566;DHT22;2295;51.050;14.608;2023-09-12T10:51:43;32.90;61.10
4566;DHT22;2295;51.050;14.608;2023-09-12T10:54:15;32.50;58.80
4566;DHT22;2295;51.050;14.608;2023-09-12T10:56:43;32.30;60.10
4566;DHT22;2295;51.050;14.608;2023-09-12T10:59:17;32.30;66.90
4566;DHT22;2295;51.050;14.608;2023-09-12T11:01:48;32.80;67.00
4566;DHT22;2295;51.050;14.608;2023-09-12T11:04:37;33.10;61.40
4566;DHT22;2295;51.050;14.608;2023-09-12T11:07:31;33.20;63.90
4566;DHT22;2295;51.050;14.608;2023-09-12T11:10:20;33.40;61.20
4566;DHT22;2295;51.050;14.608;2023-09-12T11:12:50;33.50;60.50
4566;DHT22;2295;51.050;14.608;2023-09-12T11:15:20;33.90;59.40
4566;DHT22;2295;51.050;14.608;2023-09-12T11:17:49;34.00;59.60
4566;DHT22;2295;51.050;14.608;2023-09-12T11:20:18;34.40;56.40
4566;DHT22;2295;51.050;14.608;2023-09-12T11:22:51;34.70;55.90
4566;DHT22;2295;51.050;14.608;2023-09-12T11:25:22;35.10;57.60
4566;DHT22;2295;51.050;14.608;2023-09-12T11:28:05;35.50;55.60
4566;DHT22;2295;51.050;14.608;2023-09-12T11:30:33;35.60;56.30
4566;DHT22;2295;51.050;14.608;2023-09-12T11:33:04;35.50;58.00
4566;DHT22;2295;51.050;14.608;2023-09-12T11:35:37;35.60;54.20
4566;DHT22;2295;51.050;14.608;2023-09-12T11:38:10;35.60;55.90
4566;DHT22;2295;51.050;14.608;2023-09-12T11:40:44;35.60;59.00
4566;DHT22;2295;51.050;14.608;2023-09-12T11:43:23;35.50;57.50
4566;DHT22;2295;51.050;14.608;2023-09-12T11:45:52;35.40;55.10
4566;DHT22;2295;51.050;14.608;2023-09-12T11:48:22;35.30;58.60
4566;DHT22;2295;51.050;14.608;2023-09-12T11:50:52;35.20;55.50
4566;DHT22;2295;51.050;14.608;2023-09-12T11:53:24;35.30;56.60
4566;DHT22;2295;51.050;14.608;2023-09-12T11:55:56;35.00;57.10
4566;DHT22;2295;51.050;14.608;2023-09-12T11:58:26;35.00;53.10
4566;DHT22;2295;51.050;14.608;2023-09-12T12:00:56;34.80;54.30
4566;DHT22;2295;51.050;14.608;2023-09-12T12:03:27;33.90;53.10
4566;DHT22;2295;51.050;14.608;2023-09-12T12:05:56;33.80;56.90
4566;DHT22;2295;51.050;14.608;2023-09-12T12:08:26;34.40;57.20
4566;DHT22;2295;51.050;14.608;2023-09-12T12:10:59;34.90;53.50
4566;DHT22;2295;51.050;14.608;2023-09-12T12:13:28;34.80;58.40
4566;DHT22;2295;51.050;14.608;2023-09-12T12:15:56;35.10;58.40
4566;DHT22;2295;51.050;14.608;2023-09-12T12:18:25;35.20;58.00
4566;DHT22;2295;51.050;14.608;2023-09-12T12:20:54;35.50;56.20
4566;DHT22;2295;51.050;14.608;2023-09-12T12:23:22;35.50;57.20
4566;DHT22;2295;51.050;14.608;2023-09-12T12:25:52;34.90;55.90
4566;DHT22;2295;51.050;14.608;2023-09-12T12:28:21;34.00;59.80
4566;DHT22;2295;51.050;14.608;2023-09-12T12:30:52;33.40;62.20
4566;DHT22;2295;51.050;14.608;2023-09-12T12:33:22;32.90;56.40
4566;DHT22;2295;51.050;14.608;2023-09-12T12:36:11;32.40;57.20
4566;DHT22;2295;51.050;14.608;2023-09-12T12:38:39;32.90;64.50
4566;DHT22;2295;51.050;14.608;2023-09-12T12:41:31;33.60;61.20
4566;DHT22;2295;51.050;14.608;2023-09-12T12:44:15;33.70;61.40
4566;DHT22;2295;51.050;14.608;2023-09-12T12:46:50;34.00;62.90
4566;DHT22;2295;51.050;14.608;2023-09-12T12:49:19;34.10;55.80
4566;DHT22;2295;51.050;14.608;2023-09-12T12:51:48;34.30;58.20
4566;DHT22;2295;51.050;14.608;2023-09-12T12:54:21;34.30;54.10
4566;DHT22;2295;51.050;14.608;2023-09-12T12:56:52;34.20;55.10
4566;DHT22;2295;51.050;14.608;2023-09-12T12:59:26;34.40;56.60
4566;DHT22;2295;51.050;14.608;2023-09-12T13:01:56;34.80;58.30
4566;DHT22;2295;51.050;14.608;2023-09-12T13:04:24;34.80;51.80
4566;DHT22;2295;51.050;14.608;2023-09-12T13:06:53;34.80;56.30
4566;DHT22;2295;51.050;14.608;2023-09-12T13:09:21;34.10;53.90
4566;DHT22;2295;51.050;14.608;2023-09-12T13:11:51;33.90;59.80
4566;DHT22;2295;51.050;14.608;2023-09-12T13:14:19;33.60;55.80
4566;DHT22;2295;51.050;14.608;2023-09-12T13:16:52;33.60;61.00
4566;DHT22;2295;51.050;14.608;2023-09-12T13:19:20;33.40;57.00
4566;DHT22;2295;51.050;14.608;2023-09-12T13:21:49;33.10;57.90
4566;DHT22;2295;51.050;14.608;2023-09-12T13:24:17;32.80;57.50
4566;DHT22;2295;51.050;14.608;2023-09-12T13:26:46;32.20;57.10
4566;DHT22;2295;51.050;14.608;2023-09-12T13:29:16;32.10;64.10
4566;DHT22;2295;51.050;14.608;2023-09-12T13:31:44;31.90;61.50
4566;DHT22;2295;51.050;14.608;2023-09-12T13:34:13;31.60;64.10
4566;DHT22;2295;51.050;14.608;2023-09-12T13:36:41;31.50;67.40
4566;DHT22;2295;51.050;14.608;2023-09-12T13:39:11;31.40;67.30
4566;DHT22;2295;51.050;14.608;2023-09-12T13:41:39;31.30;63.20
4566;DHT22;2295;51.050;14.608;2023-09-12T13:44:08;31.00;66.40
4566;DHT22;2295;51.050;14.608;2023-09-12T13:46:38;30.80;65.90
4566;DHT22;2295;51.050;14.608;2023-09-12T13:49:07;30.80;68.00
4566;DHT22;2295;51.050;14.608;2023-09-12T13:51:35;30.80;67.30
4566;DHT22;2295;51.050;14.608;2023-09-12T13:54:04;30.50;65.30
4566;DHT22;2295;51.050;14.608;2023-09-12T13:56:33;30.40;69.50
4566;DHT22;2295;51.050;14.608;2023-09-12T13:59:02;30.20;70.40
4566;DHT22;2295;51.050;14.608;2023-09-12T14:01:32;30.10;69.70
4566;DHT22;2295;51.050;14.608;2023-09-12T14:04:03;30.00;69.30
4566;DHT22;2295;51.050;14.608;2023-09-12T14:06:33;30.00;70.80
4566;DHT22;2295;51.050;14.608;2023-09-12T14:09:03;30.00;65.60
4566;DHT22;2295;51.050;14.608;2023-09-12T14:11:32;30.00;70.10
4566;DHT22;2295;51.050;14.608;2023-09-12T14:14:03;29.90;66.30
4566;DHT22;2295;51.050;14.608;2023-09-12T14:16:35;29.90;68.40
4566;DHT22;2295;51.050;14.608;2023-09-12T14:19:05;29.80;66.20
4566;DHT22;2295;51.050;14.608;2023-09-12T14:21:35;29.80;72.20
4566;DHT22;2295;51.050;14.608;2023-09-12T14:24:05;29.90;70.30
4566;DHT22;2295;51.050;14.608;2023-09-12T14:26:36;29.90;73.60
4566;DHT22;2295;51.050;14.608;2023-09-12T14:29:04;29.90;71.30
4566;DHT22;2295;51.050;14.608;2023-09-12T14:31:34;29.80;69.40
4566;DHT22;2295;51.050;14.608;2023-09-12T14:34:06;29.60;72.10
4566;DHT22;2295;51.050;14.608;2023-09-12T14:36:36;29.60;70.90
4566;DHT22;2295;51.050;14.608;2023-09-12T14:39:05;29.70;69.90
4566;DHT22;2295;51.050;14.608;2023-09-12T14:41:34;29.70;72.50
4566;DHT22;2295;51.050;14.608;2023-09-12T14:44:02;29.70;70.40
4566;DHT22;2295;51.050;14.608;2023-09-12T14:46:32;29.70;71.70
4566;DHT22;2295;51.050;14.608;2023-09-12T14:49:00;29.70;72.70
4566;DHT22;2295;51.050;14.608;2023-09-12T14:51:30;29.70;72.30
4566;DHT22;2295;51.050;14.608;2023-09-12T14:54:01;29.70;67.30
4566;DHT22;2295;51.050;14.608;2023-09-12T14:56:30;29.70;68.00
4566;DHT22;2295;51.050;14.608;2023-09-12T14:58:59;29.80;71.80
4566;DHT22;2295;51.050;14.608;2023-09-12T15:01:27;29.70;69.60
4566;DHT22;2295;51.050;14.608;2023-09-12T15:03:56;29.50;70.30
4566;DHT22;2295;51.050;14.608;2023-09-12T15:06:25;29.40;69.30
4566;DHT22;2295;51.050;14.608;2023-09-12T15:08:55;29.40;72.40
4566;DHT22;2295;51.050;14.608;2023-09-12T15:11:23;29.40;72.20
4566;DHT22;2295;51.050;14.608;2023-09-12T15:13:54;29.40;72.10
4566;DHT22;2295;51.050;14.608;2023-09-12T15:16:22;29.50;70.20
4566;DHT22;2295;51.050;14.608;2023-09-12T15:18:53;29.60;71.50
4566;DHT22;2295;51.050;14.608;2023-09-12T15:21:21;29.90;72.30
4566;DHT22;2295;51.050;14.608;2023-09-12T15:23:49;30.10;71.00
4566;DHT22;2295;51.050;14.608;2023-09-12T15:26:19;30.40;66.40
4566;DHT22;2295;51.050;14.608;2023-09-12T15:28:50;30.90;69.10
4566;DHT22;2295;51.050;14.608;2023-09-12T15:31:22;31.10;67.50
4566;DHT22;2295;51.050;14.608;2023-09-12T15:33:50;31.40;63.70
4566;DHT22;2295;51.050;14.608;2023-09-12T15:36:18;31.70;63.90
4566;DHT22;2295;51.050;14.608;2023-09-12T15:38:47;32.00;63.90
4566;DHT22;2295;51.050;14.608;2023-09-12T15:41:16;32.10;64.10
4566;DHT22;2295;51.050;14.608;2023-09-12T15:43:46;31.90;64.60
4566;DHT22;2295;51.050;14.608;2023-09-12T15:46:24;31.40;65.40
4566;DHT22;2295;51.050;14.608;2023-09-12T15:49:02;30.50;68.70
4566;DHT22;2295;51.050;14.608;2023-09-12T15:51:31;29.90;69.50
4566;DHT22;2295;51.050;14.608;2023-09-12T15:54:03;29.60;73.50
4566;DHT22;2295;51.050;14.608;2023-09-12T15:56:31;29.50;71.90
4566;DHT22;2295;51.050;14.608;2023-09-12T15:59:04;29.60;71.20
4566;DHT22;2295;51.050;14.608;2023-09-12T16:01:32;29.60;70.50
4566;DHT22;2295;51.050;14.608;2023-09-12T16:04:01;29.30;71.60